KCPS/CPS METAR and TAF weather

Enter ICAO airport designator
Station Type Date Time Source
KCPS METAR 2018/10/19 14:53 UTC NOAA

KCPS 191453Z 20006KT 10SM OVC075 11/03 A3023 RMK AO2 SLP237 T01110033 56007


Station Type Date Time Source
KCPS Decoded METAR 2018/10/19 14:53 UTC NOAA

ST LOUIS DOWNTOWN AIRPORT, IL, United States (KCPS) 38-34N 090-09W 126M
Oct 19, 2018 - 10:53 AM EDT / 2018.10.19 1453 UTC
Wind: from the SSW (200 degrees) at 7 MPH (6 KT):0
Visibility: 10 mile(s):0
Sky conditions: overcast
Temperature: 52.0 F (11.1 C)
Dew Point: 37.9 F (3.3 C)
Relative Humidity: 58%
Pressure (altimeter): 30.23 in. Hg (1023 hPa)
Pressure tendency: 0.02 inches (0.7 hPa) lower than three hours ago
ob: KCPS 191453Z 20006KT 10SM OVC075 11/03 A3023 RMK AO2 SLP237 T01110033 56007
cycle: 15

Station Type Date Time Source
KCPS TAF 2018/10/19 12:22 UTC NOAA

TAF KCPS 191120Z 1912/2012 VRB03KT P6SM BKN250
FM191400 20005KT P6SM OVC070
FM191700 22006KT P6SM -RA OVC050
FM191900 23006KT 6SM -RA BR OVC025
FM192200 22007KT P6SM OVC018
FM200400 26007KT P6SM BKN050


Example: see airport list